Kynouria — V7VY6 — position and weather

sailwx.info

Track history (hours):
 
Tides and Currents Weather Stations Pressure Air Temp Water Temp Dewpoint Dewpoint Depression Visibility Wind Speed Wind Dir Waves Ship Positions

Kynouria

Last reported at 2015-Jan-25 18:22 UTC. Time now 2015-Jan-28 18:20 UTC.
Position N 01°55' E 102°19'.

Length 229 m; draft 14.1 m.

Type: Cargo ship. MMSI: 538004243.

Date/timePositionNaut miles runAvg speedWind from/ knotsBaromVisibWave heightAir tempDewpointWater temp
2015-Jan-25 18:22N 01°55' E 102°19'8 9.6
2015-Jan-25 17:31N 01°52' E 102°27'10 9.1
2015-Jan-25 16:24N 01°47' E 102°36'8 9.2
2015-Jan-25 15:31N 01°43' E 102°43'10 9.9
2015-Jan-25 14:33N 01°40' E 102°52'5711.3
2015-Jan-25 09:31N 01°10' E 103°40'9 9.0
2015-Jan-25 08:30N 01°11' E 103°49'9 9.9
2015-Jan-25 07:34N 01°16' E 103°57'2 1.5
2015-Jan-25 06:32N 01°17' E 103°58'0 0.0
2015-Jan-25 05:32N 01°17' E 103°58'0 0.0
2015-Jan-25 04:20N 01°17' E 103°58'0 0.0
2015-Jan-25 03:32N 01°17' E 103°58'0 0.0
2015-Jan-25 02:32N 01°17' E 103°58'0 0.0
2015-Jan-25 01:26N 01°17' E 103°58'0 0.0
2015-Jan-24 23:32N 01°17' E 103°58'0 0.0
2015-Jan-24 22:26N 01°17' E 103°58'0 0.0
2015-Jan-24 21:14N 01°17' E 103°58'0 0.0
2015-Jan-24 20:32N 01°17' E 103°58'0 0.0
2015-Jan-24 19:32N 01°17' E 103°58'0 0.0
2015-Jan-24 18:08N 01°17' E 103°58'0 0.0
2015-Jan-24 17:32N 01°17' E 103°58'0 0.0
2015-Jan-24 16:32N 01°17' E 103°58'0 0.0
2015-Jan-24 14:32N 01°17' E 103°58'0 0.2
2015-Jan-24 13:32N 01°17' E 103°58'0 0.1
2015-Jan-24 12:20N 01°17' E 103°58'0 0.0
2015-Jan-24 11:26N 01°17' E 103°58'0 0.0
2015-Jan-24 10:32N 01°17' E 103°58'1 0.5
2015-Jan-24 09:31N 01°17' E 103°58'5 4.9
2015-Jan-24 08:31N 01°16' E 104°03'1010.2
2015-Jan-24 07:32N 01°17' E 104°13'  
Track history (hours):
 
Tides and Currents Weather Stations Pressure Air Temp Water Temp Dewpoint Dewpoint Depression Visibility Wind Speed Wind Dir Waves Ship Positions

Kynouria

Last reported at 2015-Jan-25 18:22 UTC. Time now 2015-Jan-28 18:20 UTC.
Position N 01°55' E 102°19'.

Length 229 m; draft 14.1 m.

Type: Cargo ship. MMSI: 538004243.

Date/timePositionNaut miles runAvg speedWind from/ knotsBaromVisibWave heightAir tempDewpointWater temp
2015-Jan-25 18:22N 01°55' E 102°19'8 9.6
2015-Jan-25 17:31N 01°52' E 102°27'10 9.1
2015-Jan-25 16:24N 01°47' E 102°36'8 9.2
2015-Jan-25 15:31N 01°43' E 102°43'10 9.9
2015-Jan-25 14:33N 01°40' E 102°52'5711.3
2015-Jan-25 09:31N 01°10' E 103°40'9 9.0
2015-Jan-25 08:30N 01°11' E 103°49'9 9.9
2015-Jan-25 07:34N 01°16' E 103°57'2 1.5
2015-Jan-25 06:32N 01°17' E 103°58'0 0.0
2015-Jan-25 05:32N 01°17' E 103°58'0 0.0
2015-Jan-25 04:20N 01°17' E 103°58'0 0.0
2015-Jan-25 03:32N 01°17' E 103°58'0 0.0
2015-Jan-25 02:32N 01°17' E 103°58'0 0.0
2015-Jan-25 01:26N 01°17' E 103°58'0 0.0
2015-Jan-24 23:32N 01°17' E 103°58'0 0.0
2015-Jan-24 22:26N 01°17' E 103°58'0 0.0
2015-Jan-24 21:14N 01°17' E 103°58'0 0.0
2015-Jan-24 20:32N 01°17' E 103°58'0 0.0
2015-Jan-24 19:32N 01°17' E 103°58'0 0.0
2015-Jan-24 18:08N 01°17' E 103°58'0 0.0
2015-Jan-24 17:32N 01°17' E 103°58'0 0.0
2015-Jan-24 16:32N 01°17' E 103°58'0 0.0
2015-Jan-24 14:32N 01°17' E 103°58'0 0.2
2015-Jan-24 13:32N 01°17' E 103°58'0 0.1
2015-Jan-24 12:20N 01°17' E 103°58'0 0.0
2015-Jan-24 11:26N 01°17' E 103°58'0 0.0
2015-Jan-24 10:32N 01°17' E 103°58'1 0.5
2015-Jan-24 09:31N 01°17' E 103°58'5 4.9
2015-Jan-24 08:31N 01°16' E 104°03'1010.2
2015-Jan-24 07:32N 01°17' E 104°13'  

Dump ship's entire track history